createdAt,value
2018-09-18T00:02:02.156Z,6.70
2018-09-18T00:04:30.374Z,7.63
2018-09-18T00:06:58.678Z,9.87
2018-09-18T00:09:27.018Z,7.73
2018-09-18T00:11:55.227Z,19.30
2018-09-18T00:14:23.477Z,8.87
2018-09-18T00:16:51.738Z,7.53
2018-09-18T00:19:20.052Z,7.53
2018-09-18T00:21:48.365Z,7.40
2018-09-18T00:24:16.629Z,10.10
2018-09-18T00:26:44.961Z,7.70
2018-09-18T00:29:13.237Z,9.07
2018-09-18T00:31:41.633Z,9.53
2018-09-18T00:34:09.888Z,9.00
2018-09-18T00:36:38.179Z,8.77
2018-09-18T00:39:07.726Z,8.00
2018-09-18T00:41:35.977Z,9.60
2018-09-18T00:44:04.337Z,8.47
2018-09-18T00:46:32.589Z,11.00
2018-09-18T00:49:03.256Z,9.73
2018-09-18T00:51:31.462Z,10.60
2018-09-18T00:53:59.687Z,8.60
2018-09-18T00:56:28.037Z,11.23
2018-09-18T00:58:56.325Z,10.13
2018-09-18T01:01:24.548Z,11.33
2018-09-18T01:03:52.800Z,10.67
2018-09-18T01:06:20.982Z,9.57
2018-09-18T01:08:49.409Z,9.17
2018-09-18T01:11:17.629Z,11.37
2018-09-18T01:13:46.234Z,9.30
2018-09-18T01:16:14.426Z,11.70
2018-09-18T01:18:43.441Z,8.33
2018-09-18T01:21:12.282Z,10.60
2018-09-18T01:23:40.450Z,9.30
2018-09-18T01:26:08.891Z,10.30
2018-09-18T01:28:37.466Z,8.93
2018-09-18T01:31:05.866Z,9.33
2018-09-18T01:33:34.390Z,8.60
2018-09-18T01:36:02.678Z,9.50
2018-09-18T01:38:30.842Z,10.37
2018-09-18T01:40:59.051Z,8.70
2018-09-18T01:43:27.310Z,9.30
2018-09-18T01:45:55.545Z,8.33
2018-09-18T01:48:23.773Z,7.97
2018-09-18T01:50:51.970Z,12.03
2018-09-18T01:53:20.492Z,9.43
2018-09-18T01:55:49.370Z,10.67
2018-09-18T01:58:17.562Z,8.17
2018-09-18T02:00:45.790Z,8.63
2018-09-18T02:03:13.996Z,8.93
2018-09-18T02:05:42.414Z,8.77
2018-09-18T02:08:10.617Z,7.63
2018-09-18T02:10:38.819Z,8.57
2018-09-18T02:13:07.019Z,8.37
2018-09-18T02:15:35.574Z,11.27
2018-09-18T02:18:03.765Z,8.50
2018-09-18T02:20:31.955Z,9.57
2018-09-18T02:23:00.133Z,9.37
2018-09-18T02:25:28.406Z,7.83
2018-09-18T02:27:56.765Z,9.53
2018-09-18T02:30:24.951Z,10.20
2018-09-18T02:32:53.158Z,8.37
2018-09-18T02:35:21.561Z,9.90
2018-09-18T02:37:49.790Z,8.43
2018-09-18T02:40:17.982Z,10.17
2018-09-18T02:42:46.158Z,9.60
2018-09-18T02:45:14.338Z,9.37
2018-09-18T02:47:42.754Z,9.17
2018-09-18T02:50:10.959Z,11.87
2018-09-18T02:52:39.416Z,10.47
2018-09-18T02:55:07.581Z,8.57
2018-09-18T02:57:35.875Z,10.83
2018-09-18T03:00:04.402Z,13.40
2018-09-18T03:02:32.575Z,11.30
2018-09-18T03:05:00.783Z,10.40
2018-09-18T03:07:28.974Z,11.67
2018-09-18T03:09:57.192Z,10.43
2018-09-18T03:12:25.388Z,12.63
2018-09-18T03:14:53.576Z,10.37
2018-09-18T03:17:21.776Z,12.27
2018-09-18T03:19:50.191Z,11.53
2018-09-18T03:22:18.427Z,15.50
2018-09-18T03:24:46.642Z,9.87
2018-09-18T03:27:14.882Z,11.17
2018-09-18T03:29:43.789Z,11.57
2018-09-18T03:32:12.171Z,10.50
2018-09-18T03:34:40.355Z,9.43
2018-09-18T03:37:08.553Z,9.07
2018-09-18T03:39:36.778Z,11.70
2018-09-18T03:42:05.530Z,9.43
2018-09-18T03:44:33.867Z,10.07
2018-09-18T03:47:02.058Z,10.23
2018-09-18T03:49:30.232Z,12.27
2018-09-18T03:51:58.555Z,10.33
2018-09-18T03:54:26.767Z,15.90
2018-09-18T03:56:54.942Z,12.23
2018-09-18T03:59:23.156Z,15.03
2018-09-18T04:01:51.495Z,11.90
2018-09-18T04:04:19.709Z,12.43
2018-09-18T04:06:47.922Z,11.53
2018-09-18T04:09:16.138Z,12.70
2018-09-18T04:11:44.360Z,12.37
2018-09-18T04:14:13.612Z,12.17
2018-09-18T04:16:41.809Z,14.37
2018-09-18T04:19:10.004Z,11.70
2018-09-18T04:21:40.870Z,12.23
2018-09-18T04:24:09.126Z,11.17
2018-09-18T04:26:38.439Z,12.00
2018-09-18T04:29:07.229Z,12.80
2018-09-18T04:31:36.311Z,11.63
2018-09-18T04:34:04.685Z,12.43
2018-09-18T04:36:32.996Z,12.03
2018-09-18T04:39:01.249Z,11.07
2018-09-18T04:41:29.477Z,11.43
2018-09-18T04:43:57.984Z,10.93
2018-09-18T04:46:26.871Z,11.33
2018-09-18T04:48:55.062Z,10.87
2018-09-18T04:51:23.325Z,12.20
2018-09-18T04:53:51.515Z,13.83
2018-09-18T04:56:19.773Z,13.67
2018-09-18T04:58:48.065Z,12.17
2018-09-18T05:01:16.322Z,11.50
2018-09-18T05:03:44.514Z,11.37
2018-09-18T05:06:12.876Z,11.73
2018-09-18T05:08:41.304Z,14.60
2018-09-18T05:11:09.502Z,13.57
2018-09-18T05:13:37.956Z,15.87
2018-09-18T05:16:06.367Z,14.47
2018-09-18T05:18:35.407Z,12.87
2018-09-18T05:21:03.827Z,14.13
2018-09-18T05:23:32.112Z,15.03
2018-09-18T05:26:00.367Z,13.70
2018-09-18T05:28:28.731Z,11.67
2018-09-18T05:30:56.978Z,12.50
2018-09-18T05:33:25.221Z,11.33
2018-09-18T05:35:53.423Z,13.37
2018-09-18T05:38:21.599Z,14.87
2018-09-18T05:40:49.971Z,13.77
2018-09-18T05:43:18.173Z,17.37
2018-09-18T05:45:46.353Z,13.87
2018-09-18T05:48:14.651Z,17.33
2018-09-18T05:50:43.173Z,16.80
2018-09-18T05:53:12.894Z,14.07
2018-09-18T05:55:41.876Z,13.60
2018-09-18T05:58:10.066Z,16.53
2018-09-18T06:00:38.276Z,14.93
2018-09-18T06:03:06.523Z,14.47
2018-09-18T06:05:34.806Z,16.77
2018-09-18T06:08:03.020Z,16.50
2018-09-18T06:10:31.202Z,16.10
2018-09-18T06:12:59.405Z,15.00
2018-09-18T06:15:27.642Z,17.07
2018-09-18T06:17:56.074Z,18.97
2018-09-18T06:20:24.253Z,18.33
2018-09-18T06:22:52.436Z,17.57
2018-09-18T06:25:20.852Z,17.73
2018-09-18T06:27:49.754Z,15.10
2018-09-18T06:30:17.941Z,15.97
2018-09-18T06:32:46.238Z,17.03
2018-09-18T06:35:14.779Z,16.00
2018-09-18T06:37:43.173Z,18.83
2018-09-18T06:40:12.662Z,19.63
2018-09-18T06:42:41.199Z,15.70
2018-09-18T06:45:10.007Z,14.97
2018-09-18T06:47:38.242Z,18.90
2018-09-18T06:50:06.427Z,21.10
2018-09-18T06:52:34.790Z,17.33
2018-09-18T06:55:02.985Z,15.20
2018-09-18T06:57:31.209Z,15.47
2018-09-18T06:59:59.398Z,17.13
2018-09-18T07:02:28.907Z,16.87
2018-09-18T07:04:57.297Z,20.20
2018-09-18T07:07:25.498Z,17.27
2018-09-18T07:09:53.735Z,18.90
2018-09-18T07:12:21.949Z,19.80
2018-09-18T07:14:51.153Z,18.43
2018-09-18T07:17:19.707Z,15.57
2018-09-18T07:19:47.898Z,20.27
2018-09-18T07:22:16.147Z,17.07
2018-09-18T07:24:44.770Z,18.97
2018-09-18T07:27:13.418Z,16.97
2018-09-18T07:29:41.797Z,15.33
2018-09-18T07:32:09.993Z,14.77
2018-09-18T07:34:38.207Z,18.27
2018-09-18T07:37:06.407Z,15.47
2018-09-18T07:39:34.869Z,14.43
2018-09-18T07:42:03.074Z,17.17
2018-09-18T07:44:31.262Z,18.43
2018-09-18T07:46:59.574Z,13.43
2018-09-18T07:49:28.321Z,14.23
2018-09-18T07:51:56.514Z,15.77
2018-09-18T07:54:24.709Z,14.80
2018-09-18T07:56:52.885Z,16.17
2018-09-18T07:59:21.773Z,13.30
2018-09-18T08:01:50.134Z,15.00
2018-09-18T08:04:18.396Z,14.80
2018-09-18T08:06:46.599Z,16.60
2018-09-18T08:09:14.826Z,14.25
2018-09-18T08:11:43.256Z,16.50
2018-09-18T08:14:12.048Z,12.05
2018-09-18T08:16:40.278Z,12.53
2018-09-18T08:19:08.579Z,12.53
2018-09-18T08:21:36.774Z,10.72
2018-09-18T08:24:05.966Z,13.48
2018-09-18T08:26:35.392Z,12.15
2018-09-18T08:29:03.780Z,10.85
2018-09-18T08:31:32.122Z,14.28
2018-09-18T08:34:00.792Z,12.58
2018-09-18T08:36:29.266Z,10.25
2018-09-18T08:38:57.635Z,10.78
2018-09-18T08:41:25.933Z,10.05
2018-09-18T08:43:54.294Z,11.65
2018-09-18T08:46:22.599Z,9.75
2018-09-18T08:48:55.169Z,12.28
2018-09-18T08:51:23.380Z,7.70
2018-09-18T08:53:51.599Z,12.98
2018-09-18T08:56:19.950Z,8.83
2018-09-18T08:58:49.360Z,10.70
2018-09-18T09:01:17.570Z,9.28
2018-09-18T09:03:45.762Z,8.95
2018-09-18T09:06:14.020Z,11.83
2018-09-18T09:08:43.003Z,8.53
2018-09-18T09:11:11.400Z,8.53
2018-09-18T09:13:39.638Z,11.25
2018-09-18T09:16:07.833Z,10.23
2018-09-18T09:18:36.201Z,7.33
2018-09-18T09:21:04.497Z,9.48
2018-09-18T09:23:32.759Z,7.92
2018-09-18T09:26:00.982Z,7.53
2018-09-18T09:28:29.257Z,7.42
2018-09-18T09:30:58.325Z,6.20
2018-09-18T09:33:27.120Z,7.83
2018-09-18T09:35:55.333Z,5.83
2018-09-18T09:38:23.531Z,7.37
2018-09-18T09:40:51.730Z,9.35
2018-09-18T09:43:20.219Z,9.60
2018-09-18T09:45:48.693Z,5.95
2018-09-18T09:48:17.066Z,6.45
2018-09-18T09:50:45.258Z,9.75
2018-09-18T09:53:13.509Z,7.45
2018-09-18T09:55:41.700Z,5.95
2018-09-18T09:58:09.882Z,5.60
2018-09-18T10:00:41.342Z,6.80
2018-09-18T10:03:09.598Z,7.42
2018-09-18T10:05:37.839Z,8.13
2018-09-18T10:08:06.346Z,6.95
2018-09-18T10:10:34.602Z,8.43
2018-09-18T10:13:02.753Z,5.78
2018-09-18T10:15:30.966Z,5.45
2018-09-18T10:17:59.936Z,5.42
2018-09-18T10:20:27.994Z,5.55
2018-09-18T10:22:56.314Z,5.55
2018-09-18T10:25:24.620Z,7.28
2018-09-18T10:27:52.799Z,5.87
2018-09-18T10:30:21.512Z,9.20
2018-09-18T10:32:50.089Z,6.58
2018-09-18T10:35:18.235Z,5.17
2018-09-18T10:37:46.699Z,5.65
2018-09-18T10:40:14.894Z,7.22
2018-09-18T10:42:43.176Z,30.70
2018-09-18T10:45:11.460Z,6.10
2018-09-18T10:47:46.520Z,7.53
2018-09-18T10:50:14.749Z,5.45
2018-09-18T10:52:43.488Z,5.53
2018-09-18T10:55:11.734Z,5.67
2018-09-18T10:57:39.911Z,5.62
2018-09-18T11:00:08.759Z,4.30
2018-09-18T11:02:36.972Z,7.22
2018-09-18T11:05:06.189Z,3.27
2018-09-18T11:07:35.247Z,4.35
2018-09-18T11:10:03.480Z,4.40
2018-09-18T11:12:31.593Z,3.50
2018-09-18T11:14:59.876Z,4.30
2018-09-18T11:17:28.549Z,3.60
2018-09-18T11:19:56.993Z,4.03
2018-09-18T11:22:25.301Z,4.00
2018-09-18T11:24:53.430Z,3.45
2018-09-18T11:27:21.673Z,4.17
2018-09-18T11:29:50.837Z,3.60
2018-09-18T11:32:19.524Z,3.62
2018-09-18T11:34:47.698Z,4.67
2018-09-18T11:37:16.090Z,4.35
2018-09-18T11:39:44.337Z,3.95
2018-09-18T11:42:12.727Z,3.60
2018-09-18T11:44:40.936Z,3.87
2018-09-18T11:47:09.159Z,3.90
2018-09-18T11:49:37.415Z,5.78
2018-09-18T11:52:05.895Z,3.72
2018-09-18T11:54:34.248Z,3.22
2018-09-18T11:57:02.560Z,4.00
2018-09-18T11:59:30.742Z,4.10
2018-09-18T12:01:59.463Z,3.58
2018-09-18T12:04:27.926Z,5.62
2018-09-18T12:06:56.165Z,3.80
2018-09-18T12:09:24.438Z,3.72
2018-09-18T12:11:52.639Z,4.15
2018-09-18T12:14:21.019Z,3.15
2018-09-18T12:16:50.256Z,3.50
2018-09-18T12:19:18.426Z,3.45
2018-09-18T12:21:46.607Z,3.20
2018-09-18T12:24:14.822Z,3.30
2018-09-18T12:26:43.135Z,3.05
2018-09-18T12:29:11.362Z,6.42
2018-09-18T12:31:39.661Z,11.53
2018-09-18T12:34:07.847Z,5.35
2018-09-18T12:36:36.757Z,4.08
2018-09-18T12:39:07.675Z,3.52
2018-09-18T12:41:36.090Z,6.00
2018-09-18T12:44:04.237Z,5.37
2018-09-18T12:46:32.436Z,3.08
2018-09-18T12:49:00.637Z,3.95
2018-09-18T12:51:28.928Z,4.00
2018-09-18T12:53:58.148Z,4.15
2018-09-18T12:56:26.368Z,3.33
2018-09-18T12:58:54.722Z,3.33
2018-09-18T13:01:22.855Z,4.33
2018-09-18T13:03:51.142Z,3.85
2018-09-18T13:06:19.504Z,3.33
2018-09-18T13:08:47.599Z,4.92
2018-09-18T13:11:15.798Z,9.30
2018-09-18T13:13:45.011Z,4.62
2018-09-18T13:16:14.111Z,3.92
2018-09-18T13:18:42.330Z,6.08
2018-09-18T13:21:10.511Z,3.72
2018-09-18T13:23:38.730Z,6.20
2018-09-18T13:26:07.222Z,4.03
2018-09-18T13:28:35.423Z,6.15
2018-09-18T13:31:03.654Z,3.80
2018-09-18T13:33:31.869Z,4.10
2018-09-18T13:36:00.126Z,4.20
2018-09-18T13:38:28.629Z,3.98
2018-09-18T13:40:57.574Z,6.80
2018-09-18T13:43:25.742Z,7.62
2018-09-18T13:45:53.947Z,5.28
2018-09-18T13:48:22.279Z,5.47
2018-09-18T13:50:50.681Z,4.42
2018-09-18T13:53:18.898Z,4.20
2018-09-18T13:55:47.091Z,5.00
2018-09-18T13:58:15.282Z,7.35
2018-09-18T14:00:44.586Z,5.83
2018-09-18T14:03:12.878Z,7.67
2018-09-18T14:05:41.118Z,4.03
2018-09-18T14:08:09.352Z,4.58
2018-09-18T14:10:37.502Z,5.00
2018-09-18T14:13:06.151Z,4.50
2018-09-18T14:15:34.503Z,3.90
2018-09-18T14:18:02.803Z,4.05
2018-09-18T14:20:30.998Z,3.83
2018-09-18T14:22:59.339Z,7.60
2018-09-18T14:25:27.750Z,6.08
2018-09-18T14:27:55.923Z,7.20
2018-09-18T14:30:24.130Z,4.20
2018-09-18T14:32:52.330Z,3.33
2018-09-18T14:35:20.768Z,4.15
2018-09-18T14:37:49.426Z,3.92
2018-09-18T14:40:17.782Z,4.87
2018-09-18T14:42:46.080Z,4.47
2018-09-18T14:45:14.441Z,4.53
2018-09-18T14:47:42.805Z,3.98
2018-09-18T14:50:11.022Z,3.65
2018-09-18T14:52:39.250Z,5.33
2018-09-18T14:55:07.507Z,4.05
2018-09-18T14:57:35.807Z,6.53
2018-09-18T15:00:04.047Z,4.87
2018-09-18T15:02:32.236Z,3.00
2018-09-18T15:05:00.533Z,7.65
2018-09-18T15:07:28.906Z,6.90
2018-09-18T15:09:57.231Z,4.22
2018-09-18T15:12:25.426Z,3.75
2018-09-18T15:14:53.650Z,3.98
2018-09-18T15:17:22.059Z,4.50
2018-09-18T15:19:50.459Z,3.45
2018-09-18T15:22:18.655Z,5.00
2018-09-18T15:24:46.866Z,9.75
2018-09-18T15:27:15.219Z,3.65
2018-09-18T15:29:43.631Z,5.70
2018-09-18T15:32:12.009Z,8.08
2018-09-18T15:34:40.200Z,3.12
2018-09-18T15:37:08.523Z,4.05
2018-09-18T15:39:36.931Z,3.33
2018-09-18T15:42:05.348Z,4.03
2018-09-18T15:44:33.566Z,4.20
2018-09-18T15:47:01.815Z,3.42
2018-09-18T15:49:30.046Z,4.25
2018-09-18T15:51:58.479Z,4.20
2018-09-18T15:54:26.906Z,4.70
2018-09-18T15:56:55.302Z,2.98
2018-09-18T15:59:23.494Z,3.42
2018-09-18T16:01:52.109Z,4.40
2018-09-18T16:04:20.476Z,4.85
2018-09-18T16:06:48.699Z,5.47
2018-09-18T16:09:16.953Z,5.80
2018-09-18T16:11:45.138Z,4.37
2018-09-18T16:14:14.258Z,3.60
2018-09-18T16:16:42.590Z,2.85
2018-09-18T16:19:10.785Z,2.45
2018-09-18T16:21:38.924Z,3.00
2018-09-18T16:24:07.121Z,3.85
2018-09-18T16:26:35.724Z,3.72
2018-09-18T16:29:03.962Z,3.58
2018-09-18T16:31:32.184Z,4.87
2018-09-18T16:34:00.368Z,4.40
2018-09-18T16:36:29.113Z,4.75
2018-09-18T16:38:57.454Z,7.33
2018-09-18T16:41:25.770Z,9.05
2018-09-18T16:43:54.078Z,5.08
2018-09-18T16:46:22.707Z,5.60
2018-09-18T16:48:51.121Z,5.85
2018-09-18T16:51:19.392Z,5.00
2018-09-18T16:53:47.737Z,3.22
2018-09-18T16:56:15.942Z,5.40
2018-09-18T16:58:44.371Z,4.47
2018-09-18T17:01:12.739Z,4.95
2018-09-18T17:03:41.032Z,5.22
2018-09-18T17:06:08.899Z,4.00
2018-09-18T17:08:37.285Z,4.53
2018-09-18T17:11:05.603Z,3.10
2018-09-18T17:13:33.814Z,6.40
2018-09-18T17:16:02.359Z,4.20
2018-09-18T17:18:30.715Z,4.25
2018-09-18T17:20:59.037Z,3.85
2018-09-18T17:23:27.434Z,3.55
2018-09-18T17:25:55.626Z,7.67
2018-09-18T17:28:23.968Z,4.05
2018-09-18T17:30:52.164Z,5.90
2018-09-18T17:33:20.410Z,4.25
2018-09-18T17:35:48.614Z,4.03
2018-09-18T17:38:17.164Z,4.53
2018-09-18T17:40:45.346Z,4.80
2018-09-18T17:43:13.765Z,4.50
2018-09-18T17:45:42.058Z,5.30
2018-09-18T17:48:10.299Z,4.97
2018-09-18T17:50:38.508Z,4.87
2018-09-18T17:53:06.826Z,4.65
2018-09-18T17:55:35.639Z,9.40
2018-09-18T17:58:04.245Z,11.25
2018-09-18T18:00:33.080Z,4.75
2018-09-18T18:03:02.179Z,8.23
2018-09-18T18:05:32.148Z,6.45
2018-09-18T18:08:00.294Z,5.40
2018-09-18T18:10:28.725Z,10.85
2018-09-18T18:12:56.991Z,7.72
2018-09-18T18:15:25.215Z,11.83
2018-09-18T18:17:53.494Z,5.40
2018-09-18T18:20:21.867Z,8.60
2018-09-18T18:22:50.077Z,9.10
2018-09-18T18:25:18.265Z,9.93
2018-09-18T18:27:46.595Z,11.20
2018-09-18T18:30:14.790Z,12.97
2018-09-18T18:32:43.017Z,10.28
2018-09-18T18:35:11.227Z,8.73
2018-09-18T18:37:39.425Z,5.35
2018-09-18T18:40:08.054Z,7.30
2018-09-18T18:42:36.578Z,10.87
2018-09-18T18:45:05.370Z,7.97
2018-09-18T18:47:33.580Z,8.47
2018-09-18T18:50:01.968Z,6.80
2018-09-18T18:52:30.141Z,7.90
2018-09-18T18:54:58.587Z,7.87
2018-09-18T18:57:27.135Z,7.87
2018-09-18T18:59:55.336Z,14.63
2018-09-18T19:02:23.531Z,14.27
2018-09-18T19:04:51.861Z,13.37
2018-09-18T19:07:20.044Z,6.50
2018-09-18T19:09:48.217Z,6.47
2018-09-18T19:12:16.496Z,7.47
2018-09-18T19:14:44.682Z,7.37
2018-09-18T19:17:12.954Z,4.70
2018-09-18T19:19:41.428Z,4.83
2018-09-18T19:22:09.614Z,9.77
2018-09-18T19:24:37.984Z,7.43
2018-09-18T19:27:06.246Z,6.23
2018-09-18T19:29:34.483Z,7.00
2018-09-18T19:32:02.780Z,6.73
2018-09-18T19:34:30.930Z,6.97
2018-09-18T19:36:59.320Z,8.20
2018-09-18T19:39:27.576Z,7.00
2018-09-18T19:41:55.914Z,4.50
2018-09-18T19:44:24.168Z,6.83
2018-09-18T19:46:52.563Z,11.90
2018-09-18T19:49:21.037Z,12.77
2018-09-18T19:51:49.369Z,9.63
2018-09-18T19:54:17.523Z,11.80
2018-09-18T19:56:45.799Z,8.53
2018-09-18T19:59:14.077Z,7.93
2018-09-18T20:01:42.327Z,5.27
2018-09-18T20:04:10.549Z,7.73
2018-09-18T20:06:38.801Z,6.07
2018-09-18T20:09:09.046Z,11.43
2018-09-18T20:11:37.441Z,11.03
2018-09-18T20:14:05.746Z,6.23
2018-09-18T20:16:34.110Z,8.53
2018-09-18T20:19:02.340Z,9.77
2018-09-18T20:21:30.806Z,7.07
2018-09-18T20:23:59.027Z,8.20
2018-09-18T20:26:27.314Z,6.67
2018-09-18T20:28:55.789Z,12.30
2018-09-18T20:31:24.030Z,8.67
2018-09-18T20:33:52.250Z,18.93
2018-09-18T20:36:20.739Z,6.63
2018-09-18T20:38:49.478Z,6.87
2018-09-18T20:41:18.614Z,8.33
2018-09-18T20:43:46.890Z,9.90
2018-09-18T20:46:15.148Z,6.77
2018-09-18T20:48:43.593Z,11.27
2018-09-18T20:51:12.285Z,6.53
2018-09-18T20:53:40.486Z,6.83
2018-09-18T20:56:08.694Z,5.40
2018-09-18T20:58:36.902Z,8.60
2018-09-18T21:01:05.154Z,7.00
2018-09-18T21:03:34.123Z,7.10
2018-09-18T21:06:02.337Z,7.73
2018-09-18T21:08:30.625Z,7.53
2018-09-18T21:10:58.734Z,8.33
2018-09-18T21:13:27.002Z,8.03
2018-09-18T21:15:55.201Z,7.63
2018-09-18T21:18:23.392Z,7.57
2018-09-18T21:20:51.652Z,7.67
2018-09-18T21:23:19.791Z,7.07
2018-09-18T21:26:05.068Z,7.23
2018-09-18T21:28:33.422Z,5.87
2018-09-18T21:31:01.721Z,7.87
2018-09-18T21:33:30.258Z,5.87
2018-09-18T21:35:58.702Z,6.03
2018-09-18T21:38:27.192Z,8.00
2018-09-18T21:40:55.489Z,6.27
2018-09-18T21:43:23.764Z,6.83
2018-09-18T21:45:51.946Z,5.67
2018-09-18T21:48:20.168Z,9.50
2018-09-18T21:50:48.345Z,6.27
2018-09-18T21:53:16.627Z,8.97
2018-09-18T21:55:45.580Z,7.83
2018-09-18T21:58:13.863Z,7.20
2018-09-18T22:00:42.514Z,8.30
2018-09-18T22:03:10.984Z,7.17
2018-09-18T22:05:39.143Z,6.33
2018-09-18T22:08:07.626Z,9.73
2018-09-18T22:10:35.906Z,8.80
2018-09-18T22:13:04.309Z,6.37
2018-09-18T22:15:33.028Z,9.90
2018-09-18T22:18:01.563Z,8.13
2018-09-18T22:20:29.751Z,10.77
2018-09-18T22:22:58.045Z,7.97
2018-09-18T22:25:26.316Z,8.43
2018-09-18T22:27:54.505Z,8.03
2018-09-18T22:30:22.696Z,7.03
2018-09-18T22:32:50.921Z,7.17
2018-09-18T22:35:19.169Z,10.30
2018-09-18T22:37:47.400Z,8.27
2018-09-18T22:40:15.606Z,7.00
2018-09-18T22:42:44.072Z,6.40
2018-09-18T22:45:12.302Z,10.33
2018-09-18T22:47:40.497Z,7.07
2018-09-18T22:50:08.707Z,12.73
2018-09-18T22:52:36.974Z,12.60
2018-09-18T22:55:05.151Z,11.57
2018-09-18T22:57:33.501Z,9.23
2018-09-18T23:00:01.700Z,10.17
2018-09-18T23:02:29.984Z,12.20
2018-09-18T23:04:58.274Z,8.10
2018-09-18T23:07:26.544Z,6.97
2018-09-18T23:09:54.845Z,9.27
2018-09-18T23:12:23.043Z,8.13
2018-09-18T23:14:51.473Z,7.80
2018-09-18T23:17:19.956Z,9.97
2018-09-18T23:19:48.167Z,6.40
2018-09-18T23:22:16.441Z,7.40
2018-09-18T23:24:44.806Z,7.00
2018-09-18T23:27:13.149Z,6.97
2018-09-18T23:29:41.526Z,5.80
2018-09-18T23:32:09.694Z,8.60
2018-09-18T23:34:38.024Z,8.23
2018-09-18T23:37:06.412Z,9.67
2018-09-18T23:39:34.814Z,8.27
2018-09-18T23:42:03.078Z,5.97
2018-09-18T23:44:31.459Z,5.67
2018-09-18T23:46:59.647Z,6.90
2018-09-18T23:49:27.984Z,8.97
2018-09-18T23:51:56.314Z,6.10
2018-09-18T23:54:24.517Z,8.07
2018-09-18T23:56:52.679Z,10.53
2018-09-18T23:59:20.931Z,6.00
